createdAt,value
2018-01-18T00:00:17.041Z,5.08
2018-01-18T00:00:43.149Z,5.04
2018-01-18T00:01:09.255Z,5.02
2018-01-18T00:01:35.359Z,5.08
2018-01-18T00:02:01.478Z,5.15
2018-01-18T00:02:27.586Z,5.21
2018-01-18T00:02:53.687Z,5.23
2018-01-18T00:03:19.793Z,5.1
2018-01-18T00:03:45.916Z,5.02
2018-01-18T00:04:12.016Z,5.07
2018-01-18T00:04:38.119Z,5.02
2018-01-18T00:05:04.258Z,5
2018-01-18T00:05:30.366Z,5.04
2018-01-18T00:05:56.464Z,5.08
2018-01-18T00:06:22.570Z,5
2018-01-18T00:06:48.691Z,4.96
2018-01-18T00:07:14.800Z,5.04
2018-01-18T00:07:40.898Z,5.02
2018-01-18T00:08:07.036Z,5.04
2018-01-18T00:08:33.117Z,5.02
2018-01-18T00:08:59.220Z,5.07
2018-01-18T00:09:25.354Z,5
2018-01-18T00:09:51.450Z,4.92
2018-01-18T00:10:17.552Z,5.08
2018-01-18T00:10:43.656Z,4.87
2018-01-18T00:11:09.772Z,4.94
2018-01-18T00:11:35.878Z,4.86
2018-01-18T00:12:01.986Z,4.82
2018-01-18T00:12:28.175Z,4.84
2018-01-18T00:12:54.286Z,4.86
2018-01-18T00:13:20.456Z,4.97
2018-01-18T00:13:46.583Z,4.93
2018-01-18T00:14:12.701Z,4.89
2018-01-18T00:14:38.806Z,5
2018-01-18T00:15:04.912Z,4.96
2018-01-18T00:15:31.019Z,5.07
2018-01-18T00:15:57.123Z,5.04
2018-01-18T00:16:23.236Z,5.08
2018-01-18T00:16:49.717Z,5
2018-01-18T00:17:15.801Z,4.97
2018-01-18T00:17:41.940Z,5
2018-01-18T00:18:08.037Z,5.1
2018-01-18T00:18:34.160Z,5.1
2018-01-18T00:19:00.264Z,5.1
2018-01-18T00:19:26.363Z,5.14
2018-01-18T00:19:52.479Z,5.14
2018-01-18T00:20:18.583Z,5.15
2018-01-18T00:20:44.725Z,5.05
2018-01-18T00:21:11.132Z,5.05
2018-01-18T00:21:37.158Z,5.1
2018-01-18T00:22:03.296Z,5.08
2018-01-18T00:22:29.383Z,5.05
2018-01-18T00:22:55.483Z,5.14
2018-01-18T00:23:21.594Z,5.08
2018-01-18T00:23:47.695Z,5.02
2018-01-18T00:24:13.804Z,4.99
2018-01-18T00:24:39.911Z,4.93
2018-01-18T00:25:06.011Z,4.89
2018-01-18T00:25:32.116Z,4.94
2018-01-18T00:25:58.225Z,5
2018-01-18T00:26:24.351Z,4.92
2018-01-18T00:26:50.451Z,4.97
2018-01-18T00:27:16.550Z,5
2018-01-18T00:27:42.696Z,4.99
2018-01-18T00:28:08.776Z,4.93
2018-01-18T00:28:34.883Z,4.94
2018-01-18T00:29:00.982Z,4.92
2018-01-18T00:29:27.090Z,5.02
2018-01-18T00:29:53.192Z,5
2018-01-18T00:30:19.301Z,4.94
2018-01-18T00:30:45.407Z,4.93
2018-01-18T00:31:11.527Z,4.89
2018-01-18T00:31:37.631Z,5.04
2018-01-18T00:32:03.735Z,5.02
2018-01-18T00:32:29.842Z,4.84
2018-01-18T00:32:55.941Z,4.93
2018-01-18T00:33:22.039Z,4.89
2018-01-18T00:33:48.150Z,5.05
2018-01-18T00:34:14.252Z,4.99
2018-01-18T00:34:40.361Z,5
2018-01-18T00:35:06.459Z,5.02
2018-01-18T00:35:32.564Z,5
2018-01-18T00:35:58.673Z,5
2018-01-18T00:36:24.773Z,4.9
2018-01-18T00:36:50.881Z,4.93
2018-01-18T00:37:16.977Z,4.78
2018-01-18T00:37:43.081Z,4.94
2018-01-18T00:38:09.187Z,4.9
2018-01-18T00:38:35.299Z,4.92
2018-01-18T00:39:01.405Z,4.9
2018-01-18T00:39:27.504Z,5
2018-01-18T00:39:53.622Z,5
2018-01-18T00:40:19.713Z,5.02
2018-01-18T00:40:45.821Z,4.93
2018-01-18T00:41:12.393Z,4.99
2018-01-18T00:41:38.604Z,4.97
2018-01-18T00:42:04.703Z,4.77
2018-01-18T00:42:30.806Z,4.92
2018-01-18T00:42:56.907Z,4.77
2018-01-18T00:43:23.035Z,4.77
2018-01-18T00:43:49.137Z,4.86
2018-01-18T00:44:15.257Z,4.89
2018-01-18T00:44:41.365Z,4.94
2018-01-18T00:45:07.468Z,5.07
2018-01-18T00:45:33.576Z,5
2018-01-18T00:45:59.679Z,4.96
2018-01-18T00:46:25.779Z,4.97
2018-01-18T00:46:51.899Z,4.93
2018-01-18T00:47:18.002Z,4.93
2018-01-18T00:47:44.203Z,5.02
2018-01-18T00:48:10.299Z,4.93
2018-01-18T00:48:36.423Z,4.94
2018-01-18T00:49:02.529Z,4.87
2018-01-18T00:49:28.634Z,5.04
2018-01-18T00:49:54.799Z,4.9
2018-01-18T00:50:20.927Z,5.07
2018-01-18T00:50:47.033Z,5.05
2018-01-18T00:51:13.132Z,5.04
2018-01-18T00:51:39.244Z,5.04
2018-01-18T00:52:05.375Z,5
2018-01-18T00:52:31.477Z,5.04
2018-01-18T00:52:57.580Z,4.89
2018-01-18T00:53:23.691Z,5.07
2018-01-18T00:53:49.796Z,5.07
2018-01-18T00:54:15.897Z,5.05
2018-01-18T00:54:42.018Z,5
2018-01-18T00:55:08.145Z,5.12
2018-01-18T00:55:34.247Z,5
2018-01-18T00:56:00.348Z,5.11
2018-01-18T00:56:26.448Z,5.1
2018-01-18T00:56:52.552Z,5.07
2018-01-18T00:57:18.657Z,5.08
2018-01-18T00:57:44.766Z,5.14
2018-01-18T00:58:10.872Z,5.15
2018-01-18T00:58:36.982Z,5.2
2018-01-18T00:59:03.103Z,5.07
2018-01-18T00:59:29.241Z,5.07
2018-01-18T00:59:55.349Z,5.12
2018-01-18T01:00:21.451Z,5.08
2018-01-18T01:00:47.550Z,5.07
2018-01-18T01:01:13.691Z,5.08
2018-01-18T01:01:39.796Z,5.1
2018-01-18T01:02:05.901Z,5.12
2018-01-18T01:02:32.001Z,5.17
2018-01-18T01:02:58.100Z,5.17
2018-01-18T01:03:24.203Z,5.12
2018-01-18T01:03:50.314Z,5.14
2018-01-18T01:04:16.415Z,5.12
2018-01-18T01:04:42.554Z,5.15
2018-01-18T01:05:08.653Z,5.02
2018-01-18T01:05:34.783Z,5.08
2018-01-18T01:06:00.897Z,5.15
2018-01-18T01:06:27.005Z,5.08
2018-01-18T01:06:53.117Z,5.07
2018-01-18T01:07:19.265Z,5.14
2018-01-18T01:07:45.371Z,5
2018-01-18T01:08:11.470Z,5.14
2018-01-18T01:08:37.564Z,5.14
2018-01-18T01:09:03.665Z,5.08
2018-01-18T01:09:29.768Z,5.18
2018-01-18T01:09:55.866Z,5.2
2018-01-18T01:10:21.967Z,5.18
2018-01-18T01:10:48.067Z,5.2
2018-01-18T01:11:14.408Z,5.2
2018-01-18T01:11:40.514Z,5.32
2018-01-18T01:12:06.618Z,5.33
2018-01-18T01:12:32.723Z,5.29
2018-01-18T01:12:58.822Z,5.3
2018-01-18T01:13:24.915Z,5.3
2018-01-18T01:13:51.021Z,5.32
2018-01-18T01:14:17.120Z,5.23
2018-01-18T01:14:43.225Z,5.28
2018-01-18T01:15:09.343Z,5.14
2018-01-18T01:15:35.439Z,5.2
2018-01-18T01:16:01.543Z,5.17
2018-01-18T01:16:27.640Z,5.21
2018-01-18T01:16:53.758Z,5.26
2018-01-18T01:17:19.879Z,5.12
2018-01-18T01:17:45.984Z,5.2
2018-01-18T01:18:12.117Z,5.25
2018-01-18T01:18:38.216Z,5.21
2018-01-18T01:19:04.319Z,5.23
2018-01-18T01:19:30.418Z,5.3
2018-01-18T01:19:56.518Z,5.29
2018-01-18T01:20:22.620Z,5.14
2018-01-18T01:20:48.718Z,5.21
2018-01-18T01:21:14.815Z,5.21
2018-01-18T01:21:40.966Z,5.2
2018-01-18T01:22:07.054Z,5.2
2018-01-18T01:22:33.158Z,5.17
2018-01-18T01:22:59.284Z,5.15
2018-01-18T01:23:25.494Z,5.28
2018-01-18T01:23:51.546Z,5.32
2018-01-18T01:24:17.658Z,5.2
2018-01-18T01:24:43.762Z,5.29
2018-01-18T01:25:09.864Z,5.11
2018-01-18T01:25:35.969Z,5.17
2018-01-18T01:26:02.066Z,5.15
2018-01-18T01:26:28.199Z,5.2
2018-01-18T01:26:54.326Z,5.18
2018-01-18T01:27:20.457Z,5.3
2018-01-18T01:27:46.887Z,5.28
2018-01-18T01:28:12.950Z,5.32
2018-01-18T01:28:39.098Z,5.28
2018-01-18T01:29:05.149Z,5.35
2018-01-18T01:29:31.255Z,5.38
2018-01-18T01:29:57.350Z,5.44
2018-01-18T01:30:23.454Z,5.38
2018-01-18T01:30:49.556Z,5.41
2018-01-18T01:31:15.663Z,5.38
2018-01-18T01:31:41.816Z,5.38
2018-01-18T01:32:07.926Z,5.43
2018-01-18T01:32:34.043Z,5.35
2018-01-18T01:33:00.141Z,5.35
2018-01-18T01:33:26.248Z,5.33
2018-01-18T01:33:52.344Z,5.33
2018-01-18T01:34:18.460Z,5.43
2018-01-18T01:34:44.569Z,5.41
2018-01-18T01:35:10.672Z,5.39
2018-01-18T01:35:36.812Z,5.33
2018-01-18T01:36:02.913Z,5.32
2018-01-18T01:36:29.034Z,5.29
2018-01-18T01:36:55.131Z,5.33
2018-01-18T01:37:21.229Z,5.32
2018-01-18T01:37:47.337Z,5.32
2018-01-18T01:38:13.429Z,5.44
2018-01-18T01:38:39.551Z,5.36
2018-01-18T01:39:05.667Z,5.33
2018-01-18T01:39:31.866Z,5.32
2018-01-18T01:39:57.958Z,5.2
2018-01-18T01:40:24.058Z,5.3
2018-01-18T01:40:50.166Z,5.33
2018-01-18T01:41:16.266Z,5.41
2018-01-18T01:41:42.366Z,5.32
2018-01-18T01:42:08.491Z,5.44
2018-01-18T01:42:34.636Z,5.39
2018-01-18T01:43:00.736Z,5.41
2018-01-18T01:43:26.829Z,5.39
2018-01-18T01:43:52.938Z,5.41
2018-01-18T01:44:19.036Z,5.39
2018-01-18T01:44:45.144Z,5.33
2018-01-18T01:45:11.259Z,5.29
2018-01-18T01:45:37.363Z,5.29
2018-01-18T01:46:03.464Z,5.33
2018-01-18T01:46:29.561Z,5.32
2018-01-18T01:46:55.668Z,5.35
2018-01-18T01:47:21.767Z,5.3
2018-01-18T01:47:47.920Z,5.28
2018-01-18T01:48:14.033Z,5.35
2018-01-18T01:48:40.112Z,5.44
2018-01-18T01:49:06.288Z,5.38
2018-01-18T01:49:32.394Z,5.3
2018-01-18T01:49:58.509Z,5.35
2018-01-18T01:50:24.614Z,5.33
2018-01-18T01:50:50.729Z,5.28
2018-01-18T01:51:16.830Z,5.28
2018-01-18T01:51:42.936Z,5.29
2018-01-18T01:52:09.056Z,5.32
2018-01-18T01:52:35.159Z,5.3
2018-01-18T01:53:01.257Z,5.35
2018-01-18T01:53:27.362Z,5.38
2018-01-18T01:53:53.461Z,5.41
2018-01-18T01:54:19.567Z,5.35
2018-01-18T01:54:45.665Z,5.32
2018-01-18T01:55:11.769Z,5.36
2018-01-18T01:55:37.873Z,5.39
2018-01-18T01:56:03.972Z,5.39
2018-01-18T01:56:30.079Z,5.33
2018-01-18T01:56:56.184Z,5.38
2018-01-18T01:57:22.281Z,5.41
2018-01-18T01:57:48.381Z,5.33
2018-01-18T01:58:14.499Z,5.36
2018-01-18T01:58:40.617Z,5.36
2018-01-18T01:59:06.738Z,5.3
2018-01-18T01:59:32.840Z,5.33
2018-01-18T01:59:58.941Z,5.29
2018-01-18T02:00:25.064Z,5.32
2018-01-18T02:00:51.171Z,5.29
2018-01-18T02:01:17.266Z,5.29
2018-01-18T02:01:43.390Z,5.26
2018-01-18T02:02:09.494Z,5.29
2018-01-18T02:02:35.591Z,5.36
2018-01-18T02:03:01.711Z,5.35
2018-01-18T02:03:27.809Z,5.36
2018-01-18T02:03:53.909Z,5.39
2018-01-18T02:04:20.255Z,5.39
2018-01-18T02:04:46.360Z,5.35
2018-01-18T02:05:13.011Z,5.3
2018-01-18T02:05:39.120Z,5.33
2018-01-18T02:06:05.250Z,5.33
2018-01-18T02:06:31.397Z,5.36
2018-01-18T02:06:57.454Z,5.39
2018-01-18T02:07:23.550Z,5.39
2018-01-18T02:07:49.674Z,5.36
2018-01-18T02:08:15.823Z,5.33
2018-01-18T02:08:41.922Z,5.26
2018-01-18T02:09:08.059Z,5.35
2018-01-18T02:09:34.132Z,5.36
2018-01-18T02:10:00.255Z,5.33
2018-01-18T02:10:26.360Z,5.32
2018-01-18T02:10:52.460Z,5.33
2018-01-18T02:11:18.561Z,5.43
2018-01-18T02:11:44.663Z,5.46
2018-01-18T02:12:10.761Z,5.41
2018-01-18T02:12:36.868Z,5.32
2018-01-18T02:13:02.965Z,5.38
2018-01-18T02:13:29.068Z,5.39
2018-01-18T02:13:55.163Z,5.44
2018-01-18T02:14:21.266Z,5.36
2018-01-18T02:14:47.370Z,5.35
2018-01-18T02:15:13.473Z,5.35
2018-01-18T02:15:39.597Z,5.28
2018-01-18T02:16:05.710Z,5.32
2018-01-18T02:16:31.836Z,5.36
2018-01-18T02:16:57.939Z,5.38
2018-01-18T02:17:24.034Z,5.41
2018-01-18T02:17:50.149Z,5.38
2018-01-18T02:18:16.250Z,5.39
2018-01-18T02:18:42.360Z,5.46
2018-01-18T02:19:08.453Z,5.41
2018-01-18T02:19:34.559Z,5.33
2018-01-18T02:20:00.663Z,5.39
2018-01-18T02:20:26.783Z,5.53
2018-01-18T02:20:52.884Z,5.48
2018-01-18T02:21:18.975Z,5.36
2018-01-18T02:21:45.078Z,5.41
2018-01-18T02:22:11.182Z,5.41
2018-01-18T02:22:37.281Z,5.35
2018-01-18T02:23:03.389Z,5.35
2018-01-18T02:23:29.484Z,5.3
2018-01-18T02:23:55.583Z,5.29
2018-01-18T02:24:21.688Z,5.3
2018-01-18T02:24:47.996Z,5.36
2018-01-18T02:25:14.094Z,5.39
2018-01-18T02:25:40.196Z,5.35
2018-01-18T02:26:06.326Z,5.29
2018-01-18T02:26:32.425Z,5.39
2018-01-18T02:26:58.536Z,5.44
2018-01-18T02:27:24.662Z,5.39
2018-01-18T02:27:50.769Z,5.35
2018-01-18T02:28:16.870Z,5.3
2018-01-18T02:28:43.178Z,5.25
2018-01-18T02:29:09.286Z,5.29
2018-01-18T02:29:35.385Z,5.35
2018-01-18T02:30:01.492Z,5.28
2018-01-18T02:30:27.592Z,5.35
2018-01-18T02:30:53.687Z,5.33
2018-01-18T02:31:19.798Z,5.23
2018-01-18T02:31:45.898Z,5.33
2018-01-18T02:32:12.000Z,5.3
2018-01-18T02:32:38.100Z,5.32
2018-01-18T02:33:04.207Z,5.36
2018-01-18T02:33:30.335Z,5.28
2018-01-18T02:33:56.438Z,5.33
2018-01-18T02:34:22.538Z,5.17
2018-01-18T02:34:48.638Z,5.14
2018-01-18T02:35:14.737Z,5.23
2018-01-18T02:35:40.838Z,5.12
2018-01-18T02:36:06.933Z,5.15
2018-01-18T02:36:33.039Z,5.15
2018-01-18T02:36:59.141Z,5.12
2018-01-18T02:37:25.239Z,5.2
2018-01-18T02:37:51.339Z,5.14
2018-01-18T02:38:17.440Z,5.23
2018-01-18T02:38:43.545Z,5.12
2018-01-18T02:39:09.660Z,5.25
2018-01-18T02:39:35.763Z,5.23
2018-01-18T02:40:01.864Z,5.21
2018-01-18T02:40:27.971Z,5.14
2018-01-18T02:40:54.075Z,5.11
2018-01-18T02:41:20.187Z,5.15
2018-01-18T02:41:46.321Z,5.1
2018-01-18T02:42:12.462Z,5.26
2018-01-18T02:42:38.556Z,5.26
2018-01-18T02:43:04.656Z,5.29
2018-01-18T02:43:30.758Z,5.29
2018-01-18T02:43:56.856Z,5.3
2018-01-18T02:44:22.966Z,5.29
2018-01-18T02:44:49.065Z,5.3
2018-01-18T02:45:15.184Z,5.29
2018-01-18T02:45:41.287Z,5.29
2018-01-18T02:46:07.387Z,5.15
2018-01-18T02:46:33.486Z,5.26
2018-01-18T02:46:59.592Z,5.26
2018-01-18T02:47:25.695Z,5.2
2018-01-18T02:47:51.786Z,5.17
2018-01-18T02:48:17.980Z,5.28
2018-01-18T02:48:44.280Z,5.32
2018-01-18T02:49:10.408Z,5.36
2018-01-18T02:49:36.522Z,5.29
2018-01-18T02:50:02.624Z,5.3
2018-01-18T02:50:28.730Z,5.33
2018-01-18T02:50:54.849Z,5.35
2018-01-18T02:51:20.978Z,5.25
2018-01-18T02:51:47.078Z,5.21
2018-01-18T02:52:13.220Z,5.3
2018-01-18T02:52:39.316Z,5.23
2018-01-18T02:53:05.439Z,5.28
2018-01-18T02:53:31.545Z,5.3
2018-01-18T02:53:57.643Z,5.29
2018-01-18T02:54:23.748Z,5.33
2018-01-18T02:54:49.848Z,5.43
2018-01-18T02:55:15.949Z,5.39
2018-01-18T02:55:42.065Z,5.36
2018-01-18T02:56:08.165Z,5.25
2018-01-18T02:56:34.267Z,5.32
2018-01-18T02:57:00.369Z,5.29
2018-01-18T02:57:26.470Z,5.41
2018-01-18T02:57:52.573Z,5.38
2018-01-18T02:58:18.671Z,5.36
2018-01-18T02:58:44.776Z,5.29
2018-01-18T02:59:10.895Z,5.29
2018-01-18T02:59:37.018Z,5.3
2018-01-18T03:00:03.116Z,5.3
2018-01-18T03:00:29.224Z,5.28
2018-01-18T03:00:55.321Z,5.32
2018-01-18T03:01:21.446Z,5.35
2018-01-18T03:01:47.544Z,5.33
2018-01-18T03:02:13.650Z,5.29
2018-01-18T03:02:39.751Z,5.28
2018-01-18T03:03:05.849Z,5.26
2018-01-18T03:03:31.955Z,5.33
2018-01-18T03:03:58.059Z,5.28
2018-01-18T03:04:24.157Z,5.26
2018-01-18T03:04:50.259Z,5.14
2018-01-18T03:05:16.361Z,5.28
2018-01-18T03:05:42.463Z,5.21
2018-01-18T03:06:08.568Z,5.28
2018-01-18T03:06:34.672Z,5.28
2018-01-18T03:07:00.775Z,5.32
2018-01-18T03:07:26.890Z,5.3
2018-01-18T03:07:52.994Z,5.32
2018-01-18T03:08:19.089Z,5.28
2018-01-18T03:08:45.192Z,5.23
2018-01-18T03:09:11.312Z,5.29
2018-01-18T03:09:37.413Z,5.2
2018-01-18T03:10:03.508Z,5.26
2018-01-18T03:10:29.614Z,5.21
2018-01-18T03:10:55.711Z,5.17
2018-01-18T03:11:21.818Z,5.23
2018-01-18T03:11:47.921Z,5.21
2018-01-18T03:12:14.018Z,5.25
2018-01-18T03:12:40.130Z,5.32
2018-01-18T03:13:06.228Z,5.33
2018-01-18T03:13:32.330Z,5.25
2018-01-18T03:13:58.427Z,5.29
2018-01-18T03:14:24.553Z,5.29
2018-01-18T03:14:50.649Z,5.28
2018-01-18T03:15:16.752Z,5.32
2018-01-18T03:15:42.846Z,5.35
2018-01-18T03:16:08.947Z,5.26
2018-01-18T03:16:35.054Z,5.3
2018-01-18T03:17:01.148Z,5.32
2018-01-18T03:17:27.254Z,5.39
2018-01-18T03:17:53.357Z,5.41
2018-01-18T03:18:19.454Z,5.36
2018-01-18T03:18:45.556Z,5.36
2018-01-18T03:19:11.656Z,5.28
2018-01-18T03:19:37.756Z,5.33
2018-01-18T03:20:03.867Z,5.33
2018-01-18T03:20:29.964Z,5.43
2018-01-18T03:20:56.062Z,5.36
2018-01-18T03:21:22.167Z,5.36
2018-01-18T03:21:48.261Z,5.44
2018-01-18T03:22:14.361Z,5.35
2018-01-18T03:22:40.465Z,5.39
2018-01-18T03:23:06.580Z,5.33
2018-01-18T03:23:32.701Z,5.47
2018-01-18T03:23:58.801Z,5.46
2018-01-18T03:24:24.906Z,5.36
2018-01-18T03:24:51.007Z,5.35
2018-01-18T03:25:17.108Z,5.54
2018-01-18T03:25:43.205Z,5.54
2018-01-18T03:26:09.308Z,5.59
2018-01-18T03:26:35.413Z,5.53
2018-01-18T03:27:01.510Z,5.59
2018-01-18T03:27:27.611Z,5.56
2018-01-18T03:27:53.720Z,5.54
2018-01-18T03:28:19.822Z,5.56
2018-01-18T03:28:45.920Z,5.5
2018-01-18T03:29:12.022Z,5.54
2018-01-18T03:29:38.120Z,5.57
2018-01-18T03:30:04.221Z,5.56
2018-01-18T03:30:30.328Z,5.54
2018-01-18T03:30:56.426Z,5.5
2018-01-18T03:31:22.528Z,5.51
2018-01-18T03:31:48.624Z,5.46
2018-01-18T03:32:14.739Z,5.48
2018-01-18T03:32:40.842Z,5.53
2018-01-18T03:33:06.945Z,5.53
2018-01-18T03:33:33.037Z,5.57
2018-01-18T03:33:59.140Z,5.48
2018-01-18T03:34:25.245Z,5.56
2018-01-18T03:34:51.343Z,5.5
2018-01-18T03:35:17.442Z,5.54
2018-01-18T03:35:43.547Z,5.48
2018-01-18T03:36:09.651Z,5.48
2018-01-18T03:36:35.762Z,5.47
2018-01-18T03:37:01.863Z,5.51
2018-01-18T03:37:27.972Z,5.5
2018-01-18T03:37:54.076Z,5.53
2018-01-18T03:38:20.173Z,5.47
2018-01-18T03:38:46.275Z,5.53
2018-01-18T03:39:12.374Z,5.56
2018-01-18T03:39:38.477Z,5.51
2018-01-18T03:40:04.576Z,5.51
2018-01-18T03:40:30.680Z,5.48
2018-01-18T03:40:56.777Z,5.53
2018-01-18T03:41:22.883Z,5.53
2018-01-18T03:41:48.984Z,5.69
2018-01-18T03:42:15.079Z,5.53
2018-01-18T03:42:41.187Z,5.43
2018-01-18T03:43:07.280Z,5.47
2018-01-18T03:43:33.387Z,5.56
2018-01-18T03:43:59.491Z,5.61
2018-01-18T03:44:25.590Z,5.66
2018-01-18T03:44:51.697Z,5.64
2018-01-18T03:45:17.807Z,5.69
2018-01-18T03:45:43.911Z,5.72
2018-01-18T03:46:10.012Z,5.65
2018-01-18T03:46:36.130Z,5.8
2018-01-18T03:47:02.230Z,5.69
2018-01-18T03:47:28.341Z,5.68
2018-01-18T03:47:54.446Z,5.66
2018-01-18T03:48:20.543Z,5.75
2018-01-18T03:48:46.650Z,5.69
2018-01-18T03:49:12.753Z,5.72
2018-01-18T03:49:38.850Z,5.69
2018-01-18T03:50:04.972Z,5.69
2018-01-18T03:50:31.069Z,5.79
2018-01-18T03:50:57.186Z,5.72
2018-01-18T03:51:23.291Z,5.71
2018-01-18T03:51:49.396Z,5.68
2018-01-18T03:52:15.501Z,5.68
2018-01-18T03:52:41.605Z,5.64
2018-01-18T03:53:07.704Z,5.69
2018-01-18T03:53:33.806Z,5.71
2018-01-18T03:53:59.905Z,5.68
2018-01-18T03:54:26.020Z,5.65
2018-01-18T03:54:52.126Z,5.72
2018-01-18T03:55:18.225Z,5.69
2018-01-18T03:55:44.323Z,5.69
2018-01-18T03:56:10.421Z,5.62
2018-01-18T03:56:36.530Z,5.65
2018-01-18T03:57:02.633Z,5.62
2018-01-18T03:57:28.736Z,5.75
2018-01-18T03:57:54.842Z,5.54
2018-01-18T03:58:20.941Z,5.57
2018-01-18T03:58:47.040Z,5.65
2018-01-18T03:59:13.136Z,5.66
2018-01-18T03:59:39.238Z,5.56
2018-01-18T04:00:05.345Z,5.59
2018-01-18T04:00:31.443Z,5.54
2018-01-18T04:00:57.582Z,5.38
2018-01-18T04:01:23.685Z,5.51
2018-01-18T04:01:49.782Z,5.54
2018-01-18T04:02:15.881Z,5.62
2018-01-18T04:02:41.986Z,5.59
2018-01-18T04:03:08.089Z,5.57
2018-01-18T04:03:34.186Z,5.54
2018-01-18T04:04:00.290Z,5.57
2018-01-18T04:04:26.388Z,5.54
2018-01-18T04:04:52.485Z,5.56
2018-01-18T04:05:18.590Z,5.57
2018-01-18T04:05:44.696Z,5.56
2018-01-18T04:06:10.794Z,5.56
2018-01-18T04:06:36.894Z,5.69
2018-01-18T04:07:02.998Z,5.71
2018-01-18T04:07:29.097Z,5.59
2018-01-18T04:07:55.201Z,5.53
2018-01-18T04:08:21.313Z,5.54
2018-01-18T04:08:47.413Z,5.51
2018-01-18T04:09:13.515Z,5.56
2018-01-18T04:09:39.621Z,5.54
2018-01-18T04:10:05.720Z,5.47
2018-01-18T04:10:31.825Z,5.57
2018-01-18T04:10:57.921Z,5.53
2018-01-18T04:11:24.027Z,5.57
2018-01-18T04:11:50.133Z,5.56
2018-01-18T04:12:16.230Z,5.54
2018-01-18T04:12:42.327Z,5.59
2018-01-18T04:13:08.437Z,5.56
2018-01-18T04:13:34.530Z,5.5
2018-01-18T04:14:00.653Z,5.43
2018-01-18T04:14:26.752Z,5.47
2018-01-18T04:14:52.857Z,5.53
2018-01-18T04:15:18.962Z,5.48
2018-01-18T04:15:45.066Z,5.47
2018-01-18T04:16:11.165Z,5.56
2018-01-18T04:16:37.263Z,5.46
2018-01-18T04:17:03.366Z,5.41
2018-01-18T04:17:29.473Z,5.35
2018-01-18T04:17:55.585Z,5.33
2018-01-18T04:18:21.686Z,5.28
2018-01-18T04:18:47.784Z,5.3
2018-01-18T04:19:13.886Z,5.36
2018-01-18T04:19:40.010Z,5.39
2018-01-18T04:20:06.115Z,5.41
2018-01-18T04:20:32.207Z,5.3
2018-01-18T04:20:58.329Z,5.47
2018-01-18T04:21:24.428Z,5.44
2018-01-18T04:21:50.545Z,5.47
2018-01-18T04:22:16.646Z,5.33
2018-01-18T04:22:42.753Z,5.28
2018-01-18T04:23:08.859Z,5.28
2018-01-18T04:23:34.955Z,5.38
2018-01-18T04:24:01.058Z,5.41
2018-01-18T04:24:27.153Z,5.3
2018-01-18T04:24:53.272Z,5.35
2018-01-18T04:25:19.374Z,5.33
2018-01-18T04:25:45.480Z,5.38
2018-01-18T04:26:11.584Z,5.38
2018-01-18T04:26:37.679Z,5.29
2018-01-18T04:27:03.819Z,5.38
2018-01-18T04:27:29.880Z,5.33
2018-01-18T04:27:55.985Z,5.32
2018-01-18T04:28:22.081Z,5.38
2018-01-18T04:28:48.187Z,5.3
2018-01-18T04:29:14.291Z,5.25
2018-01-18T04:29:40.388Z,5.25
2018-01-18T04:30:06.483Z,5.28
2018-01-18T04:30:32.589Z,5.3
2018-01-18T04:30:58.686Z,5.33
2018-01-18T04:31:24.790Z,5.25
2018-01-18T04:31:50.894Z,5.35
2018-01-18T04:32:16.988Z,5.43
2018-01-18T04:32:43.096Z,5.35
2018-01-18T04:33:09.194Z,5.33
2018-01-18T04:33:35.297Z,5.32
2018-01-18T04:34:01.409Z,5.38
2018-01-18T04:34:27.524Z,5.3
2018-01-18T04:34:53.630Z,5.33
2018-01-18T04:35:19.727Z,5.33
2018-01-18T04:35:45.831Z,5.32
2018-01-18T04:36:11.956Z,5.2
2018-01-18T04:36:38.072Z,5.32
2018-01-18T04:37:04.172Z,5.21
2018-01-18T04:37:30.280Z,5.2
2018-01-18T04:37:56.385Z,5.17
2018-01-18T04:38:22.480Z,5.1
2018-01-18T04:38:48.586Z,5.15
2018-01-18T04:39:14.688Z,5.1
2018-01-18T04:39:40.785Z,5.11
2018-01-18T04:40:06.884Z,5.08
2018-01-18T04:40:32.983Z,5.11
2018-01-18T04:40:59.084Z,5.1
2018-01-18T04:41:25.187Z,5.1
2018-01-18T04:41:51.287Z,5.02
2018-01-18T04:42:17.386Z,5.05
2018-01-18T04:42:43.486Z,5.04
2018-01-18T04:43:09.584Z,5.04
2018-01-18T04:43:35.695Z,5.02
2018-01-18T04:44:01.798Z,5.02
2018-01-18T04:44:27.895Z,4.99
2018-01-18T04:44:53.990Z,5.1
2018-01-18T04:45:20.098Z,5.05
2018-01-18T04:45:46.195Z,5.02
2018-01-18T04:46:12.304Z,4.96
2018-01-18T04:46:38.420Z,5.1
2018-01-18T04:47:04.525Z,5
2018-01-18T04:47:30.630Z,4.94
2018-01-18T04:47:56.727Z,4.93
2018-01-18T04:48:22.835Z,4.8
2018-01-18T04:48:48.930Z,4.75
2018-01-18T04:49:15.049Z,4.77
2018-01-18T04:49:41.153Z,4.75
2018-01-18T04:50:07.250Z,4.78
2018-01-18T04:50:33.354Z,4.77
2018-01-18T04:50:59.475Z,4.78
2018-01-18T04:51:25.568Z,4.86
2018-01-18T04:51:51.673Z,4.77
2018-01-18T04:52:17.771Z,4.74
2018-01-18T04:52:43.875Z,4.84
2018-01-18T04:53:09.973Z,4.78
2018-01-18T04:53:36.077Z,4.78
2018-01-18T04:54:02.172Z,4.73
2018-01-18T04:54:28.270Z,4.75
2018-01-18T04:54:54.376Z,4.75
2018-01-18T04:55:20.474Z,4.78
2018-01-18T04:55:46.577Z,4.75
2018-01-18T04:56:12.680Z,4.82
2018-01-18T04:56:38.777Z,4.82
2018-01-18T04:57:04.882Z,4.7
2018-01-18T04:57:30.978Z,4.8
2018-01-18T04:57:57.082Z,4.8
2018-01-18T04:58:23.181Z,4.8
2018-01-18T04:58:49.281Z,4.84
2018-01-18T04:59:15.380Z,4.92
2018-01-18T04:59:41.481Z,4.87
2018-01-18T05:00:07.597Z,4.97
2018-01-18T05:00:33.694Z,4.96
2018-01-18T05:00:59.794Z,4.89
2018-01-18T05:01:25.893Z,4.82
2018-01-18T05:01:51.994Z,4.77
2018-01-18T05:02:18.092Z,4.74
2018-01-18T05:02:44.212Z,4.71
2018-01-18T05:03:10.312Z,4.82
2018-01-18T05:03:36.417Z,4.82
2018-01-18T05:04:02.533Z,4.71
2018-01-18T05:04:28.638Z,4.84
2018-01-18T05:04:54.782Z,4.68
2018-01-18T05:05:20.838Z,4.7
2018-01-18T05:05:46.934Z,4.67
2018-01-18T05:06:13.037Z,4.7
2018-01-18T05:06:39.162Z,4.73
2018-01-18T05:07:05.264Z,4.68
2018-01-18T05:07:31.368Z,4.68
2018-01-18T05:07:57.472Z,4.6
2018-01-18T05:08:23.572Z,4.56
2018-01-18T05:08:49.676Z,4.56
2018-01-18T05:09:15.778Z,4.56
2018-01-18T05:09:41.872Z,4.53
2018-01-18T05:10:07.972Z,4.59
2018-01-18T05:10:34.077Z,4.62
2018-01-18T05:11:00.185Z,4.6
2018-01-18T05:11:26.279Z,4.58
2018-01-18T05:11:52.379Z,4.68
2018-01-18T05:12:18.485Z,4.53
2018-01-18T05:12:44.581Z,4.67
2018-01-18T05:13:10.687Z,4.53
2018-01-18T05:13:36.783Z,4.68
2018-01-18T05:14:02.892Z,4.55
2018-01-18T05:14:28.992Z,4.6
2018-01-18T05:14:55.091Z,4.45
2018-01-18T05:15:21.190Z,4.44
2018-01-18T05:15:47.295Z,4.48
2018-01-18T05:16:13.396Z,4.3
2018-01-18T05:16:39.492Z,4.48
2018-01-18T05:17:05.596Z,4.5
2018-01-18T05:17:31.696Z,4.6
2018-01-18T05:17:57.797Z,4.63
2018-01-18T05:18:23.926Z,4.6
2018-01-18T05:18:50.000Z,4.45
2018-01-18T05:19:16.104Z,4.4
2018-01-18T05:19:42.208Z,4.44
2018-01-18T05:20:08.305Z,4.45
2018-01-18T05:20:34.413Z,4.49
2018-01-18T05:21:00.515Z,4.45
2018-01-18T05:21:26.639Z,4.5
2018-01-18T05:21:52.730Z,4.45
2018-01-18T05:22:18.851Z,4.48
2018-01-18T05:22:44.972Z,4.34
2018-01-18T05:23:11.076Z,4.35
2018-01-18T05:23:37.171Z,4.24
2018-01-18T05:24:03.276Z,4.31
2018-01-18T05:24:29.372Z,4.19
2018-01-18T05:24:55.473Z,4.2
2018-01-18T05:25:21.570Z,4.22
2018-01-18T05:25:47.669Z,4.2
2018-01-18T05:26:13.780Z,4.13
2018-01-18T05:26:39.885Z,4.14
2018-01-18T05:27:05.983Z,4.16
2018-01-18T05:27:32.092Z,4.13
2018-01-18T05:27:58.212Z,4.06
2018-01-18T05:28:24.307Z,4.12
2018-01-18T05:28:50.410Z,4.13
2018-01-18T05:29:16.519Z,4.05
2018-01-18T05:29:42.610Z,3.99
2018-01-18T05:30:08.716Z,3.99
2018-01-18T05:30:34.827Z,3.94
2018-01-18T05:31:00.928Z,3.98
2018-01-18T05:31:27.030Z,4.01
2018-01-18T05:31:53.132Z,3.98
2018-01-18T05:32:19.233Z,3.94
2018-01-18T05:32:45.333Z,3.98
2018-01-18T05:33:11.433Z,4.04
2018-01-18T05:33:37.536Z,4.1
2018-01-18T05:34:03.634Z,4.06
2018-01-18T05:34:29.738Z,4.02
2018-01-18T05:34:55.837Z,4.13
2018-01-18T05:35:21.932Z,4.19
2018-01-18T05:35:48.037Z,4.13
2018-01-18T05:36:14.142Z,4.13
2018-01-18T05:36:40.241Z,4.12
2018-01-18T05:37:06.346Z,4.12
2018-01-18T05:37:32.441Z,4.13
2018-01-18T05:37:58.567Z,4.19
2018-01-18T05:38:24.666Z,4.2
2018-01-18T05:38:50.763Z,4.23
2018-01-18T05:39:16.864Z,4.2
2018-01-18T05:39:42.969Z,4.19
2018-01-18T05:40:09.066Z,4.17
2018-01-18T05:40:35.164Z,4.1
2018-01-18T05:41:01.270Z,4.13
2018-01-18T05:41:27.365Z,4.14
2018-01-18T05:41:53.467Z,4.19
2018-01-18T05:42:19.572Z,4.19
2018-01-18T05:42:45.672Z,4.13
2018-01-18T05:43:11.773Z,4.1
2018-01-18T05:43:37.871Z,4.05
2018-01-18T05:44:03.972Z,4.02
2018-01-18T05:44:30.076Z,4.02
2018-01-18T05:44:56.173Z,4.06
2018-01-18T05:45:22.280Z,4.04
2018-01-18T05:45:48.374Z,4.12
2018-01-18T05:46:14.472Z,4.1
2018-01-18T05:46:40.575Z,4.08
2018-01-18T05:47:06.679Z,4.08
2018-01-18T05:47:32.778Z,4.1
2018-01-18T05:47:58.881Z,4.19
2018-01-18T05:48:24.981Z,4.19
2018-01-18T05:48:51.080Z,4.19
2018-01-18T05:49:17.180Z,4.17
2018-01-18T05:49:43.281Z,4.28